createdAt,value
2023-04-27T00:01:57.415Z,8.55
2023-04-27T00:04:25.388Z,9.63
2023-04-27T00:06:53.209Z,8.73
2023-04-27T00:09:21.041Z,9.00
2023-04-27T00:11:48.575Z,8.77
2023-04-27T00:14:16.801Z,9.65
2023-04-27T00:16:44.432Z,10.00
2023-04-27T00:19:14.965Z,8.70
2023-04-27T00:21:43.103Z,8.15
2023-04-27T00:24:10.694Z,9.50
2023-04-27T00:26:38.306Z,8.70
2023-04-27T00:29:06.486Z,9.77
2023-04-27T00:31:34.223Z,7.85
2023-04-27T00:34:01.936Z,9.00
2023-04-27T00:36:29.794Z,9.40
2023-04-27T00:38:57.330Z,8.40
2023-04-27T00:41:25.632Z,9.48
2023-04-27T00:43:54.069Z,8.45
2023-04-27T00:46:24.930Z,8.30
2023-04-27T00:48:52.581Z,9.27
2023-04-27T00:51:22.186Z,9.52
2023-04-27T00:58:50.050Z,8.18
2023-04-27T01:01:20.756Z,8.27
2023-04-27T01:03:49.129Z,8.90
2023-04-27T01:06:18.356Z,8.88
2023-04-27T01:08:46.970Z,9.05
2023-04-27T01:11:14.568Z,9.35
2023-04-27T01:13:42.195Z,10.00
2023-04-27T01:16:09.829Z,8.43
2023-04-27T01:18:42.660Z,8.85
2023-04-27T01:21:10.709Z,9.13
2023-04-27T01:23:38.523Z,9.60
2023-04-27T01:26:06.205Z,9.73
2023-04-27T01:28:33.719Z,9.13
2023-04-27T01:31:01.458Z,9.27
2023-04-27T01:33:29.072Z,8.95
2023-04-27T01:35:56.616Z,9.18
2023-04-27T01:38:24.344Z,9.20
2023-04-27T01:41:02.554Z,9.77
2023-04-27T01:43:31.835Z,9.73
2023-04-27T01:46:11.526Z,9.80
2023-04-27T01:51:07.524Z,9.27
2023-04-27T01:53:35.134Z,9.13
2023-04-27T01:56:03.557Z,8.43
2023-04-27T01:58:33.818Z,9.98
2023-04-27T02:01:01.502Z,9.65
2023-04-27T02:03:30.048Z,8.73
2023-04-27T02:05:57.935Z,9.68
2023-04-27T02:08:25.482Z,10.73
2023-04-27T02:10:53.145Z,10.20
2023-04-27T02:13:21.226Z,11.48
2023-04-27T02:15:49.119Z,10.40
2023-04-27T02:18:16.933Z,10.65
2023-04-27T02:20:44.605Z,10.88
2023-04-27T02:23:12.430Z,11.40
2023-04-27T02:25:42.985Z,11.05
2023-04-27T02:28:10.612Z,10.43
2023-04-27T02:30:39.151Z,9.75
2023-04-27T02:33:07.083Z,12.20
2023-04-27T02:35:34.804Z,11.13
2023-04-27T02:38:02.533Z,11.40
2023-04-27T02:40:30.116Z,10.48
2023-04-27T02:42:58.252Z,11.45
2023-04-27T02:45:25.849Z,10.70
2023-04-27T02:47:53.435Z,10.85
2023-04-27T02:50:21.497Z,11.73
2023-04-27T02:52:49.119Z,11.07
2023-04-27T02:55:17.285Z,12.07
2023-04-27T02:57:45.207Z,11.75
2023-04-27T03:00:13.311Z,9.80
2023-04-27T03:02:41.066Z,11.02
2023-04-27T03:05:08.973Z,11.32
2023-04-27T03:07:36.637Z,11.70
2023-04-27T03:10:04.976Z,11.27
2023-04-27T03:12:32.558Z,11.30
2023-04-27T03:15:01.090Z,11.35
2023-04-27T03:17:28.732Z,10.00
2023-04-27T03:19:56.439Z,10.05
2023-04-27T03:22:24.998Z,10.43
2023-04-27T03:24:52.544Z,10.95
2023-04-27T03:27:20.092Z,10.55
2023-04-27T03:29:47.647Z,10.57
2023-04-27T03:32:15.267Z,10.10
2023-04-27T03:34:42.798Z,11.15
2023-04-27T03:37:10.701Z,10.40
2023-04-27T03:39:38.336Z,10.27
2023-04-27T03:42:06.198Z,11.38
2023-04-27T03:44:34.298Z,10.55
2023-04-27T03:47:02.783Z,11.00
2023-04-27T03:49:30.721Z,10.35
2023-04-27T03:51:58.452Z,10.32
2023-04-27T03:54:26.061Z,11.35
2023-04-27T03:56:53.670Z,10.18
2023-04-27T03:59:21.755Z,10.48
2023-04-27T04:01:50.882Z,11.45
2023-04-27T04:04:18.690Z,10.65
2023-04-27T04:06:47.618Z,10.88
2023-04-27T04:09:15.476Z,10.95
2023-04-27T04:11:44.356Z,10.88
2023-04-27T04:14:15.001Z,10.38
2023-04-27T04:16:42.556Z,11.68
2023-04-27T04:19:10.142Z,11.50
2023-04-27T04:21:38.105Z,11.85
2023-04-27T04:24:06.047Z,10.27
2023-04-27T04:26:34.242Z,10.52
2023-04-27T04:29:02.312Z,11.68
2023-04-27T04:31:29.971Z,11.45
2023-04-27T04:33:57.513Z,10.55
2023-04-27T04:36:25.465Z,11.23
2023-04-27T04:38:57.258Z,11.55
2023-04-27T04:41:26.457Z,10.38
2023-04-27T04:43:54.572Z,11.98
2023-04-27T04:46:22.379Z,10.75
2023-04-27T04:48:54.722Z,11.40
2023-04-27T04:51:22.826Z,11.65
2023-04-27T04:53:50.821Z,11.70
2023-04-27T04:56:18.392Z,12.50
2023-04-27T04:58:46.316Z,11.55
2023-04-27T05:01:13.929Z,11.30
2023-04-27T05:03:43.485Z,12.15
2023-04-27T05:06:11.305Z,11.43
2023-04-27T05:08:38.965Z,12.07
2023-04-27T05:11:06.562Z,12.40
2023-04-27T05:13:35.623Z,11.82
2023-04-27T05:16:07.736Z,12.07
2023-04-27T05:18:36.609Z,12.07
2023-04-27T05:21:04.179Z,11.77
2023-04-27T05:23:32.058Z,11.93
2023-04-27T05:25:59.790Z,11.95
2023-04-27T05:28:27.360Z,12.00
2023-04-27T05:30:54.959Z,14.00
2023-04-27T05:33:25.951Z,12.13
2023-04-27T05:35:54.366Z,12.10
2023-04-27T05:38:21.968Z,13.30
2023-04-27T05:40:58.586Z,12.40
2023-04-27T05:43:26.633Z,12.32
2023-04-27T05:45:54.226Z,11.65
2023-04-27T05:48:22.043Z,12.55
2023-04-27T05:50:49.643Z,12.15
2023-04-27T05:53:17.300Z,11.75
2023-04-27T05:55:45.097Z,11.82
2023-04-27T05:58:13.611Z,13.20
2023-04-27T06:00:41.614Z,12.00
2023-04-27T06:03:09.439Z,12.80
2023-04-27T06:05:37.274Z,12.10
2023-04-27T06:08:05.030Z,11.63
2023-04-27T06:10:32.618Z,11.38
2023-04-27T06:13:00.238Z,12.23
2023-04-27T06:15:27.828Z,12.85
2023-04-27T06:17:55.477Z,12.90
2023-04-27T06:20:23.534Z,11.95
2023-04-27T06:22:51.357Z,11.98
2023-04-27T06:25:19.120Z,13.80
2023-04-27T06:27:47.469Z,12.00
2023-04-27T06:30:15.044Z,12.57
2023-04-27T06:32:42.927Z,11.18
2023-04-27T06:35:11.139Z,11.07
2023-04-27T06:37:39.145Z,11.68
2023-04-27T06:40:08.097Z,12.27
2023-04-27T06:42:36.327Z,10.67
2023-04-27T06:45:05.624Z,10.80
2023-04-27T06:47:33.464Z,12.07
2023-04-27T06:50:01.085Z,11.20
2023-04-27T06:52:28.625Z,12.20
2023-04-27T06:54:56.150Z,11.35
2023-04-27T06:57:23.788Z,11.10
2023-04-27T06:59:51.914Z,11.95
2023-04-27T07:02:19.663Z,11.73
2023-04-27T07:04:47.866Z,10.63
2023-04-27T07:07:15.485Z,11.13
2023-04-27T07:09:43.154Z,12.05
2023-04-27T07:12:10.706Z,9.93
2023-04-27T07:14:38.219Z,10.15
2023-04-27T07:17:05.983Z,10.57
2023-04-27T07:19:33.655Z,11.45
2023-04-27T07:22:03.818Z,11.68
2023-04-27T07:24:31.398Z,11.18
2023-04-27T07:26:59.429Z,10.70
2023-04-27T07:29:28.283Z,9.68
2023-04-27T07:31:56.296Z,11.17
2023-04-27T07:34:24.423Z,10.82
2023-04-27T07:36:55.240Z,11.18
2023-04-27T07:39:23.609Z,11.25
2023-04-27T07:41:51.801Z,11.63
2023-04-27T07:44:19.830Z,10.48
2023-04-27T07:46:49.007Z,10.25
2023-04-27T07:49:17.328Z,10.05
2023-04-27T07:51:44.889Z,9.93
2023-04-27T07:54:12.533Z,11.45
2023-04-27T07:56:43.676Z,11.00
2023-04-27T07:59:11.915Z,11.45
2023-04-27T08:01:39.890Z,11.88
2023-04-27T08:04:07.862Z,11.82
2023-04-27T08:06:36.647Z,11.70
2023-04-27T08:09:05.162Z,12.50
2023-04-27T08:11:32.923Z,10.30
2023-04-27T08:14:00.490Z,10.25
2023-04-27T08:16:28.179Z,12.07
2023-04-27T08:18:56.838Z,10.18
2023-04-27T08:21:25.140Z,11.13
2023-04-27T08:23:53.146Z,10.77
2023-04-27T08:26:23.855Z,10.43
2023-04-27T08:28:57.443Z,10.48
2023-04-27T08:31:25.840Z,11.25
2023-04-27T08:33:54.078Z,10.20
2023-04-27T08:36:26.275Z,10.63
2023-04-27T08:38:54.527Z,10.07
2023-04-27T08:41:23.337Z,11.18
2023-04-27T08:43:53.395Z,10.67
2023-04-27T08:46:22.832Z,9.77
2023-04-27T08:48:51.981Z,10.15
2023-04-27T08:51:20.948Z,9.88
2023-04-27T08:53:56.508Z,10.02
2023-04-27T08:56:28.008Z,10.02
2023-04-27T08:58:58.183Z,11.13
2023-04-27T09:01:27.499Z,11.05
2023-04-27T09:04:00.752Z,10.40
2023-04-27T09:06:35.809Z,10.02
2023-04-27T09:09:04.860Z,11.70
2023-04-27T09:11:34.913Z,10.07
2023-04-27T09:14:17.938Z,10.52
2023-04-27T09:16:46.125Z,10.95
2023-04-27T09:19:24.555Z,10.45
2023-04-27T09:22:03.524Z,10.50
2023-04-27T09:24:31.262Z,11.17
2023-04-27T09:27:00.682Z,11.30
2023-04-27T09:29:36.617Z,11.35
2023-04-27T09:32:24.655Z,9.60
2023-04-27T09:34:53.022Z,10.45
2023-04-27T09:37:21.148Z,10.90
2023-04-27T09:39:49.952Z,11.27
2023-04-27T09:42:17.836Z,11.00
2023-04-27T09:44:45.904Z,10.43
2023-04-27T09:47:14.408Z,11.43
2023-04-27T09:49:42.227Z,11.23
2023-04-27T09:52:10.749Z,11.68
2023-04-27T09:54:39.778Z,12.02
2023-04-27T09:57:36.071Z,11.98
2023-04-27T10:00:20.631Z,9.93
2023-04-27T10:03:16.683Z,12.95
2023-04-27T10:06:23.918Z,12.55
2023-04-27T10:08:51.755Z,11.65
2023-04-27T10:11:19.507Z,11.00
2023-04-27T10:13:56.279Z,10.20
2023-04-27T10:16:23.962Z,10.60
2023-04-27T10:18:55.820Z,10.02
2023-04-27T10:21:27.090Z,10.48
2023-04-27T10:23:55.134Z,9.43
2023-04-27T10:26:27.258Z,9.70
2023-04-27T10:29:16.378Z,9.65
2023-04-27T10:31:47.324Z,10.23
2023-04-27T10:34:21.395Z,10.65
2023-04-27T10:36:49.645Z,9.60
2023-04-27T10:39:46.332Z,9.48
2023-04-27T10:42:28.718Z,9.38
2023-04-27T10:44:59.596Z,9.82
2023-04-27T10:47:38.648Z,9.00
2023-04-27T10:50:08.036Z,9.02
2023-04-27T10:52:36.155Z,9.95
2023-04-27T10:55:23.167Z,9.52
2023-04-27T10:57:56.043Z,8.90
2023-04-27T11:00:29.145Z,8.57
2023-04-27T11:03:09.464Z,9.02
2023-04-27T11:05:37.336Z,8.48
2023-04-27T11:08:09.346Z,8.20
2023-04-27T11:10:50.594Z,9.25
2023-04-27T11:13:26.563Z,9.70
2023-04-27T11:15:55.536Z,8.30
2023-04-27T11:18:31.797Z,8.87
2023-04-27T11:21:11.065Z,9.52
2023-04-27T11:23:39.861Z,8.97
2023-04-27T11:26:10.868Z,8.65
2023-04-27T11:28:39.167Z,8.73
2023-04-27T11:31:07.386Z,8.45
2023-04-27T11:33:35.975Z,7.65
2023-04-27T11:36:03.777Z,8.68
2023-04-27T11:38:34.988Z,7.75
2023-04-27T11:41:08.037Z,9.20
2023-04-27T11:43:37.188Z,9.10
2023-04-27T11:46:06.871Z,8.38
2023-04-27T11:48:37.682Z,9.75
2023-04-27T11:51:11.961Z,8.75
2023-04-27T11:53:40.070Z,8.20
2023-04-27T11:56:10.533Z,8.20
2023-04-27T11:58:39.570Z,8.93
2023-04-27T12:01:08.478Z,9.02
2023-04-27T12:03:36.740Z,9.20
2023-04-27T12:06:27.609Z,8.70
2023-04-27T12:08:57.320Z,7.88
2023-04-27T12:11:28.226Z,8.27
2023-04-27T12:13:56.864Z,9.68
2023-04-27T12:16:24.746Z,8.80
2023-04-27T12:18:53.640Z,9.02
2023-04-27T12:21:23.957Z,9.40
2023-04-27T12:23:51.886Z,9.55
2023-04-27T12:26:20.560Z,8.98
2023-04-27T12:28:48.205Z,8.88
2023-04-27T12:31:18.773Z,9.10
2023-04-27T12:33:46.928Z,10.00
2023-04-27T12:36:14.714Z,11.07
2023-04-27T12:38:42.412Z,10.40
2023-04-27T12:41:10.248Z,9.52
2023-04-27T12:43:38.366Z,11.32
2023-04-27T12:46:05.986Z,8.98
2023-04-27T12:48:33.742Z,9.32
2023-04-27T12:51:01.463Z,9.07
2023-04-27T12:53:29.275Z,9.23
2023-04-27T12:55:56.800Z,9.02
2023-04-27T12:58:24.869Z,9.48
2023-04-27T13:00:52.680Z,10.15
2023-04-27T13:03:20.602Z,9.40
2023-04-27T13:05:48.362Z,10.02
2023-04-27T13:08:16.131Z,8.98
2023-04-27T13:10:44.238Z,8.55
2023-04-27T13:13:12.009Z,8.20
2023-04-27T13:15:39.778Z,9.50
2023-04-27T13:18:07.438Z,8.43
2023-04-27T13:20:35.306Z,9.27
2023-04-27T13:23:04.864Z,9.65
2023-04-27T13:25:32.566Z,9.05
2023-04-27T13:28:00.423Z,8.13
2023-04-27T13:30:28.447Z,8.15
2023-04-27T13:33:04.464Z,8.82
2023-04-27T13:35:38.533Z,8.38
2023-04-27T13:38:06.245Z,7.57
2023-04-27T13:40:34.005Z,9.70
2023-04-27T13:43:01.584Z,8.93
2023-04-27T13:45:29.195Z,9.80
2023-04-27T13:47:56.725Z,8.45
2023-04-27T13:50:24.410Z,7.97
2023-04-27T13:52:52.010Z,8.25
2023-04-27T13:55:19.567Z,8.35
2023-04-27T13:57:47.247Z,8.63
2023-04-27T14:00:15.628Z,9.82
2023-04-27T14:02:43.405Z,8.88
2023-04-27T14:05:11.455Z,8.63
2023-04-27T14:07:39.105Z,10.35
2023-04-27T14:10:07.309Z,10.07
2023-04-27T14:12:35.878Z,10.23
2023-04-27T14:15:03.811Z,9.63
2023-04-27T14:17:32.410Z,9.52
2023-04-27T14:20:00.033Z,9.48
2023-04-27T14:22:27.705Z,9.40
2023-04-27T14:24:56.551Z,9.90
2023-04-27T14:27:24.204Z,10.93
2023-04-27T14:29:51.996Z,10.48
2023-04-27T14:32:19.645Z,10.35
2023-04-27T14:34:47.368Z,10.23
2023-04-27T14:37:14.972Z,10.30
2023-04-27T14:39:45.519Z,9.98
2023-04-27T14:42:13.396Z,9.93
2023-04-27T14:44:41.144Z,10.65
2023-04-27T14:47:08.799Z,10.98
2023-04-27T14:49:36.649Z,9.65
2023-04-27T14:52:06.633Z,10.70
2023-04-27T14:57:03.129Z,9.77
2023-04-27T14:59:30.815Z,10.10
2023-04-27T15:01:58.440Z,10.00
2023-04-27T15:04:26.821Z,9.82
2023-04-27T15:06:54.506Z,11.43
2023-04-27T15:09:24.844Z,11.05
2023-04-27T15:11:55.300Z,9.68
2023-04-27T15:14:29.029Z,10.05
2023-04-27T15:16:56.914Z,10.07
2023-04-27T15:19:24.537Z,9.18
2023-04-27T15:21:52.092Z,8.90
2023-04-27T15:24:19.630Z,9.60
2023-04-27T15:26:48.596Z,10.05
2023-04-27T15:29:17.207Z,10.23
2023-04-27T15:31:50.873Z,11.27
2023-04-27T15:34:18.576Z,10.75
2023-04-27T15:36:46.429Z,11.15
2023-04-27T15:39:14.252Z,10.65
2023-04-27T15:41:42.669Z,9.75
2023-04-27T15:44:10.271Z,11.25
2023-04-27T15:46:38.271Z,9.55
2023-04-27T15:49:06.546Z,9.27
2023-04-27T15:51:34.224Z,8.90
2023-04-27T15:54:05.043Z,10.52
2023-04-27T15:56:32.669Z,10.27
2023-04-27T15:59:00.254Z,10.20
2023-04-27T16:01:27.919Z,10.80
2023-04-27T16:03:56.641Z,12.25
2023-04-27T16:06:31.851Z,11.75
2023-04-27T16:08:59.868Z,10.65
2023-04-27T16:11:27.521Z,12.43
2023-04-27T16:13:55.082Z,11.45
2023-04-27T16:16:26.885Z,11.05
2023-04-27T16:18:55.012Z,12.65
2023-04-27T16:21:22.689Z,11.18
2023-04-27T16:23:52.700Z,12.80
2023-04-27T16:28:48.138Z,11.85
2023-04-27T16:31:16.461Z,11.90
2023-04-27T16:33:44.036Z,14.63
2023-04-27T16:36:11.766Z,14.20
2023-04-27T16:38:39.547Z,14.55
2023-04-27T16:41:08.711Z,13.02
2023-04-27T16:43:36.293Z,13.40
2023-04-27T16:46:04.132Z,12.30
2023-04-27T16:48:32.153Z,13.02
2023-04-27T16:51:00.184Z,13.32
2023-04-27T16:53:27.787Z,13.98
2023-04-27T16:55:55.740Z,13.32
2023-04-27T16:58:24.150Z,13.02
2023-04-27T17:00:51.954Z,13.40
2023-04-27T17:03:19.550Z,14.18
2023-04-27T17:05:47.802Z,13.38
2023-04-27T17:08:15.425Z,12.60
2023-04-27T17:10:45.394Z,13.73
2023-04-27T17:15:43.350Z,13.88
2023-04-27T17:18:11.031Z,13.75
2023-04-27T17:20:40.321Z,14.60
2023-04-27T17:23:11.581Z,12.75
2023-04-27T17:25:41.529Z,13.65
2023-04-27T17:28:12.173Z,13.05
2023-04-27T17:30:43.447Z,13.80
2023-04-27T17:33:11.566Z,13.82
2023-04-27T17:35:41.896Z,12.90
2023-04-27T17:38:09.509Z,13.55
2023-04-27T17:40:37.154Z,12.40
2023-04-27T17:43:05.239Z,12.82
2023-04-27T17:45:32.994Z,12.10
2023-04-27T17:48:01.088Z,12.43
2023-04-27T17:50:30.601Z,14.50
2023-04-27T17:52:58.286Z,13.68
2023-04-27T17:55:26.964Z,13.15
2023-04-27T17:57:54.538Z,13.13
2023-04-27T18:00:25.809Z,12.70
2023-04-27T18:02:53.675Z,12.32
2023-04-27T18:05:24.002Z,13.85
2023-04-27T18:07:51.838Z,15.18
2023-04-27T18:10:20.089Z,12.43
2023-04-27T18:12:47.712Z,14.23
2023-04-27T18:15:16.136Z,15.55
2023-04-27T18:17:46.162Z,13.52
2023-04-27T18:22:42.792Z,13.80
2023-04-27T18:25:10.764Z,14.00
2023-04-27T18:27:41.324Z,13.18
2023-04-27T18:30:09.073Z,13.45
2023-04-27T18:32:39.494Z,14.75
2023-04-27T18:35:07.659Z,13.00
2023-04-27T18:37:35.228Z,12.60
2023-04-27T18:40:06.963Z,12.68
2023-04-27T18:42:34.520Z,13.27
2023-04-27T18:45:02.157Z,12.65
2023-04-27T18:47:29.953Z,12.68
2023-04-27T18:49:57.555Z,13.43
2023-04-27T18:52:25.382Z,14.10
2023-04-27T18:54:55.723Z,12.15
2023-04-27T18:57:23.445Z,13.15
2023-04-27T18:59:50.994Z,13.63
2023-04-27T19:02:21.612Z,12.15
2023-04-27T19:04:57.041Z,14.50
2023-04-27T19:07:35.604Z,13.85
2023-04-27T19:10:03.373Z,14.73
2023-04-27T19:12:31.436Z,14.60
2023-04-27T19:14:58.973Z,14.77
2023-04-27T19:17:26.897Z,15.75
2023-04-27T19:19:54.648Z,14.48
2023-04-27T19:22:25.274Z,14.95
2023-04-27T19:24:56.076Z,16.40
2023-04-27T19:27:23.910Z,17.48
2023-04-27T19:29:53.948Z,18.08
2023-04-27T19:32:27.097Z,16.15
2023-04-27T19:34:56.315Z,17.10
2023-04-27T19:37:25.272Z,17.25
2023-04-27T19:39:52.915Z,18.42
2023-04-27T19:42:28.045Z,18.75
2023-04-27T19:44:56.574Z,18.70
2023-04-27T19:47:24.426Z,21.00
2023-04-27T19:49:52.057Z,20.27
2023-04-27T19:52:19.647Z,19.92
2023-04-27T19:54:53.875Z,20.98
2023-04-27T19:57:21.928Z,21.00
2023-04-27T19:59:49.615Z,22.73
2023-04-27T20:02:17.509Z,20.45
2023-04-27T20:04:45.452Z,21.23
2023-04-27T20:07:13.382Z,20.40
2023-04-27T20:09:40.926Z,22.17
2023-04-27T20:12:19.451Z,21.95
2023-04-27T20:14:56.406Z,22.17
2023-04-27T20:17:27.319Z,21.02
2023-04-27T20:19:58.120Z,20.67
2023-04-27T20:22:29.372Z,21.98
2023-04-27T20:24:59.128Z,19.05
2023-04-27T20:27:29.133Z,20.77
2023-04-27T20:32:24.186Z,19.42
2023-04-27T20:34:51.983Z,19.70
2023-04-27T20:37:19.641Z,20.55
2023-04-27T20:39:47.610Z,20.10
2023-04-27T20:42:16.007Z,24.17
2023-04-27T20:44:46.214Z,22.58
2023-04-27T20:47:14.858Z,21.88
2023-04-27T20:49:42.893Z,22.50
2023-04-27T20:52:11.437Z,22.35
2023-04-27T20:54:39.741Z,22.30
2023-04-27T20:57:13.802Z,22.40
2023-04-27T20:59:41.629Z,23.85
2023-04-27T21:02:09.160Z,22.58
2023-04-27T21:04:36.942Z,22.40
2023-04-27T21:07:04.518Z,20.85
2023-04-27T21:09:32.210Z,20.08
2023-04-27T21:12:00.251Z,21.77
2023-04-27T21:14:27.711Z,22.70
2023-04-27T21:16:55.933Z,20.25
2023-04-27T21:19:23.787Z,21.33
2023-04-27T21:21:52.223Z,22.58
2023-04-27T21:24:19.968Z,22.23
2023-04-27T21:26:47.862Z,20.73
2023-04-27T21:29:15.704Z,20.63
2023-04-27T21:31:44.583Z,21.42
2023-04-27T21:34:12.341Z,20.83
2023-04-27T21:36:40.062Z,20.23
2023-04-27T21:39:07.864Z,19.77
2023-04-27T21:41:36.086Z,19.88
2023-04-27T21:44:07.008Z,16.60
2023-04-27T21:46:34.678Z,16.65
2023-04-27T21:49:05.076Z,17.42
2023-04-27T21:51:34.952Z,15.63
2023-04-27T21:54:02.562Z,17.00
2023-04-27T21:56:30.253Z,15.80
2023-04-27T21:58:57.849Z,17.20
2023-04-27T22:01:27.252Z,15.55
2023-04-27T22:03:55.495Z,15.55
2023-04-27T22:06:23.570Z,15.82
2023-04-27T22:08:53.682Z,15.00
2023-04-27T22:11:21.420Z,14.32
2023-04-27T22:13:48.951Z,15.18
2023-04-27T22:16:16.707Z,15.65
2023-04-27T22:18:44.490Z,15.88
2023-04-27T22:21:13.019Z,15.32
2023-04-27T22:23:40.709Z,15.10
2023-04-27T22:26:08.963Z,14.13
2023-04-27T22:28:36.849Z,16.52
2023-04-27T22:31:04.892Z,15.32
2023-04-27T22:33:33.087Z,15.75
2023-04-27T22:36:00.608Z,15.98
2023-04-27T22:38:28.307Z,15.82
2023-04-27T22:40:56.187Z,16.02
2023-04-27T22:43:25.435Z,15.00
2023-04-27T22:45:53.457Z,15.80
2023-04-27T22:48:23.126Z,15.23
2023-04-27T22:50:50.753Z,15.32
2023-04-27T22:53:18.429Z,14.90
2023-04-27T22:55:46.088Z,15.77
2023-04-27T22:58:13.667Z,15.48
2023-04-27T23:00:44.248Z,15.68
2023-04-27T23:03:12.999Z,15.95
2023-04-27T23:05:40.783Z,15.32
2023-04-27T23:08:08.464Z,16.02
2023-04-27T23:10:38.859Z,13.20
2023-04-27T23:13:07.321Z,14.95
2023-04-27T23:15:35.032Z,14.20
2023-04-27T23:18:02.767Z,13.50
2023-04-27T23:20:31.004Z,14.63
2023-04-27T23:22:58.625Z,14.73
2023-04-27T23:25:26.397Z,13.23
2023-04-27T23:27:53.998Z,13.45
2023-04-27T23:30:22.561Z,12.57
2023-04-27T23:32:50.289Z,11.85
2023-04-27T23:35:18.202Z,12.25
2023-04-27T23:37:45.849Z,12.25
2023-04-27T23:40:14.342Z,10.52
2023-04-27T23:42:41.993Z,11.80
2023-04-27T23:45:09.888Z,12.18
2023-04-27T23:47:38.046Z,10.98
2023-04-27T23:50:06.486Z,12.55
2023-04-27T23:52:34.214Z,10.43
2023-04-27T23:55:01.792Z,11.48
2023-04-27T23:57:30.243Z,12.27
2023-04-27T23:59:57.803Z,11.75
